Map

Track Data

SID SEASON NUMBER BASIN SUBBASIN NAME ISO_TIME NATURE LAT LON WMO_WIND WMO_PRES WMO_AGENCY TRACK_TYPE DIST2LAND LANDFALL IFLAG USA_AGENCY USA_ATCF_ID USA_LAT USA_LON USA_RECORD USA_STATUS USA_WIND USA_PRES USA_SSHS USA_R34_NE USA_R34_SE USA_R34_SW USA_R34_NW USA_R50_NE USA_R50_SE USA_R50_SW USA_R50_NW USA_R64_NE USA_R64_SE USA_R64_SW USA_R64_NW USA_POCI USA_ROCI USA_RMW USA_EYE TOKYO_LAT TOKYO_LON TOKYO_GRADE TOKYO_WIND TOKYO_PRES TOKYO_R50_DIR TOKYO_R50_LONG TOKYO_R50_SHORT TOKYO_R30_DIR TOKYO_R30_LONG TOKYO_R30_SHORT TOKYO_LAND CMA_LAT CMA_LON CMA_CAT CMA_WIND CMA_PRES HKO_LAT HKO_LON HKO_CAT HKO_WIND HKO_PRES NEWDELHI_LAT NEWDELHI_LON NEWDELHI_GRADE NEWDELHI_WIND NEWDELHI_PRES NEWDELHI_CI NEWDELHI_DP NEWDELHI_POCI REUNION_LAT REUNION_LON REUNION_TYPE REUNION_WIND REUNION_PRES REUNION_TNUM REUNION_CI REUNION_RMW REUNION_R34_NE REUNION_R34_SE REUNION_R34_SW REUNION_R34_NW REUNION_R50_NE REUNION_R50_SE REUNION_R50_SW REUNION_R50_NW REUNION_R64_NE REUNION_R64_SE REUNION_R64_SW REUNION_R64_NW BOM_LAT BOM_LON BOM_TYPE BOM_WIND BOM_PRES BOM_TNUM BOM_CI BOM_RMW BOM_R34_NE BOM_R34_SE BOM_R34_SW BOM_R34_NW BOM_R50_NE BOM_R50_SE BOM_R50_SW BOM_R50_NW BOM_R64_NE BOM_R64_SE BOM_R64_SW BOM_R64_NW BOM_ROCI BOM_POCI BOM_EYE BOM_POS_METHOD BOM_PRES_METHOD NADI_LAT NADI_LON NADI_CAT NADI_WIND NADI_PRES WELLINGTON_LAT WELLINGTON_LON WELLINGTON_WIND WELLINGTON_PRES DS824_LAT DS824_LON DS824_STAGE DS824_WIND DS824_PRES TD9636_LAT TD9636_LON TD9636_STAGE TD9636_WIND TD9636_PRES TD9635_LAT TD9635_LON TD9635_WIND TD9635_PRES TD9635_ROCI NEUMANN_LAT NEUMANN_LON NEUMANN_CLASS NEUMANN_WIND NEUMANN_PRES MLC_LAT MLC_LON MLC_CLASS MLC_WIND MLC_PRES USA_GUST BOM_GUST BOM_GUST_PER REUNION_GUST REUNION_GUST_PER USA_SEAHGT USA_SEARAD_NE USA_SEARAD_SE USA_SEARAD_SW USA_SEARAD_NW STORM_SPEED STORM_DIR
1965026S12133 1965 14 SI WA JUDY 1965-01-25 23:00:00 NR -11.6000 133.000 main 0 0 __________O___ -1 -11.6000 133.000 1 5 116
1965026S12133 1965 14 SI WA JUDY 1965-01-25 23:30:00 NR -11.6175 133.040 1002 bom main 0 0 ______O___P___ -1 -11.6000 133.000 1002 -11.6262 133.060 1 7 156
1965026S12133 1965 14 SI WA JUDY 1965-01-26 00:00:00 TS -11.7022 133.046 main 0 0 O_____P__OP___ jtwc_sh SH211965 -11.8000 133.000 -1 -11.7302 133.005 1002 -11.6000 133.000 TC 25 1002 -11.6523 133.120 1 11 164
1965026S12133 1965 14 SI WA JUDY 1965-01-26 03:00:00 TS -12.2480 133.221 main 0 0 P_____P__PP___ SH211965 -12.4575 133.167 -1 -12.4794 133.061 1002 -12.3611 133.046 TC 25 1002 -11.8082 133.484 1 12 162
1965026S12133 1965 14 SI WA JUDY 1965-01-26 05:30:00 TS -12.7058 133.387 1002 bom main 0 0 P_____O__PP___ SH211965 -12.9225 133.354 -1 -13.0000 133.200 1002 -12.9072 133.162 TC 25 1002 -11.9355 133.792 1 12 161
1965026S12133 1965 14 SI WA JUDY 1965-01-26 06:00:00 TS -12.8136 133.419 main 0 0 O_____P__OP_O_ jtwc_sh SH211965 -13.0000 133.400 -1 -13.0861 133.244 1002 -13.0000 133.200 TC 25 1002 -11.9605 133.854 1 -12.9000 133.400 TC 30 1002 10 139
1965026S12133 1965 14 SI WA JUDY 1965-01-26 09:00:00 TS -13.1425 133.770 main 0 0 P_____P__PP_P_ SH211965 -13.3274 133.747 -1 -13.4630 133.609 1002 -13.4165 133.538 TC 25 1002 -12.1069 134.236 1 -13.2849 133.707 TC 30 1002 9 126
1965026S12133 1965 14 SI WA JUDY 1965-01-26 11:00:00 TS -13.2615 134.052 main 0 0 P_____P__PO_P_ SH211965 -13.4056 134.039 -1 -13.5851 133.919 1002 -13.5640 133.838 TC 25 1002 -12.2000 134.500 7 -13.4577 133.954 TC 30 1002 9 112
1965026S12133 1965 14 SI WA JUDY 1965-01-26 11:30:00 TS -13.2840 134.125 1002 bom main 0 0 P_____O__PP_P_ SH211965 -13.4066 134.118 -1 -13.6000 134.000 1002 -13.5851 133.919 TC 25 1002 -12.2226 134.567 7 -13.4832 134.025 TC 30 1002 9 102
1965026S12133 1965 14 SI WA JUDY 1965-01-26 12:00:00 TS -13.2918 134.201 main 0 0 O_____P__OP_O_ jtwc_sh SH211965 -13.4000 134.200 -1 -13.6058 134.074 1002 -13.6000 134.000 TC 25 1002 -12.2450 134.635 7 -13.5000 134.100 TC 30 1002 10 81
1965026S12133 1965 14 SI WA JUDY 1965-01-26 15:00:00 TS -13.1955 134.693 main 0 0 P_____P__PP_P_ SH211965 -13.1950 134.728 -1 -13.4743 134.546 1002 -13.5016 134.475 TC 25 1002 -12.3745 135.051 7 -13.4326 134.628 TC 30 1002 10 73
1965026S12133 1965 14 SP EA JUDY 1965-01-26 18:00:00 TS -12.9795 135.223 main 0 0 O_____P__PP_O_ jtwc_sh SH211965 -12.9000 135.300 -1 -13.1723 135.063 1002 -13.2063 134.996 TC 25 1002 -12.4981 135.479 7 -13.2000 135.200 TC 30 1002 11 69
1965026S12133 1965 14 SP EA JUDY 1965-01-26 21:00:00 TS -12.7945 135.753 main 0 0 P_____P__PP_P_ SH211965 -12.7475 135.872 -1 -12.8578 135.616 1002 -12.8828 135.544 TC 25 1002 -12.6192 135.912 7 -12.9123 135.700 TC 30 1002 11 73
1965026S12133 1965 14 SP EA JUDY 1965-01-26 23:00:00 TS -12.7180 136.102 main 0 0 P_____P__PO_P_ SH211965 -12.7026 136.234 -1 -12.7191 136.002 1002 -12.7349 135.915 TC 25 1002 -12.7000 136.200 1 -12.7485 136.030 TC 30 1002 10 79
1965026S12133 1965 14 SP EA JUDY 1965-01-26 23:30:00 TS -12.7084 136.189 1002 bom main 0 0 P_____O__PP_P_ SH211965 -12.6996 136.318 -1 -12.7000 136.100 1002 -12.7135 136.007 TC 25 1002 -12.7173 136.273 1 -12.7206 136.115 TC 30 1002 10 85
1965026S12133 1965 14 SP EA JUDY 1965-01-27 00:00:00 TS -12.7031 136.275 main 0 0 O_____P__OP_O_ jtwc_sh SH211965 -12.7000 136.400 -1 -12.6846 136.202 1002 -12.7000 136.100 TC 25 1002 -12.7342 136.345 1 -12.7000 136.200 TC 30 1002 10 94
1965026S12133 1965 14 SP EA JUDY 1965-01-27 02:30:00 TS -12.7431 136.693 1002 bom main 0 0 P_____O__PP_P_ SH211965 -12.7381 136.757 -1 -12.7000 136.700 1002 -12.7641 136.570 TC 27 1001 -12.8172 136.711 1 -12.7011 136.663 TC 30 1001 10 97
1965026S12133 1965 14 SP EA JUDY 1965-01-27 03:00:00 TS -12.7638 136.773 main 15 15 P_____P__PP_P_ SH211965 -12.7548 136.822 -1 -12.7327 136.790 1001 -12.7888 136.664 TC 27 1001 -12.8340 136.783 1 -12.7175 136.757 TC 30 1001 10 111
1965026S12133 1965 14 SP EA JUDY 1965-01-27 05:30:00 TS -12.9145 137.158 1000 bom main 54 54 P_____O__PP_P_ SH211965 -12.8717 137.137 -1 -13.0000 137.200 1000 -12.9586 137.115 TC 29 1000 -12.9240 137.145 1 -12.8613 137.214 TC 30 1000 10 112
1965026S12133 1965 14 SP EA JUDY 1965-01-27 06:00:00 TS -12.9490 137.233 main 54 54 O_____P__OP_O_ jtwc_sh SH211965 -12.9000 137.200 -1 -13.0501 137.282 999 -13.0000 137.200 TC 30 1000 -12.9438 137.216 1 -12.9000 137.300 TC 30 1000 10 117
1965026S12133 1965 14 SP EA JUDY 1965-01-27 09:00:00 TS -13.1780 137.680 main 109 109 P_____P__PP_P_ SH211965 -13.0775 137.608 -1 -13.3383 137.743 998 -13.3000 137.695 TC 32 999 -13.0824 137.634 1 -13.1925 137.795 TC 32 999 10 119
1965026S12133 1965 14 SP EA JUDY 1965-01-27 11:00:00 TS -13.3434 137.950 998 bom main 131 127 P_____O__PO_P_ SH211965 -13.2224 137.872 -1 -13.5000 138.000 998 -13.5093 137.978 TC 34 998 -13.2000 137.900 7 -13.4066 138.078 TC 34 998 9 123
1965026S12133 1965 14 SP EA JUDY 1965-01-27 12:00:00 TS -13.4206 138.071 main 137 134 O_____P__OP_O_ jtwc_sh SH211965 -13.3000 138.000 -1 -13.5543 138.098 997 -13.6000 138.100 TC 35 998 -13.2690 138.028 7 -13.5000 138.200 TC 35 998 7 122
1965026S12133 1965 14 SP EA JUDY 1965-01-27 15:00:00 TS -13.6075 138.376 main 163 162 P_____P__PP_P_ SH211965 -13.5349 138.358 -1 -13.6824 138.331 996 -13.7423 138.358 TC 35 997 -13.5081 138.396 7 -13.6423 138.458 TC 35 997 7 124
1965026S12133 1965 14 SP EA JUDY 1965-01-27 17:00:00 TS -13.7460 138.570 996 bom main 184 181 P_____O__PP_P_ SH211965 -13.7083 138.586 -1 -13.8000 138.500 996 -13.8349 138.510 TC 35 996 -13.6897 138.630 7 -13.7349 138.610 TC 35 996 7 127
1965026S12133 1965 14 SP EA JUDY 1965-01-27 18:00:00 TS -13.8303 138.677 main 191 188 O_____P__OP_O_ jtwc_sh SH211965 -13.8000 138.700 -1 -13.8964 138.616 996 -13.9000 138.600 TC 35 996 -13.7857 138.745 7 -13.8000 138.700 TC 35 996 9 131
1965026S12133 1965 14 SP EA JUDY 1965-01-27 21:00:00 TS -14.1457 139.043 main 216 216 P_____P__PP_P_ SH211965 -14.0850 139.050 -1 -14.2525 139.017 996 -14.2272 138.978 TC 35 996 -14.0894 139.080 7 -14.1351 139.085 TC 35 996 10 132
1965026S12133 1965 14 SP EA JUDY 1965-01-27 23:00:00 TS -14.3743 139.298 996 bom main 237 226 P_____O__PO_P_ SH211965 -14.2916 139.283 -1 -14.5000 139.300 996 -14.4783 139.259 TC 35 996 -14.3000 139.300 1 -14.3843 139.364 TC 35 996 10 132
1965026S12133 1965 14 SP EA JUDY 1965-01-28 00:00:00 TS -14.4832 139.425 main 226 186 O_____P__OP_O_ jtwc_sh SH211965 -14.4000 139.400 -1 -14.5986 139.436 996 -14.6000 139.400 TC 35 996 -14.4003 139.412 1 -14.5000 139.500 TC 35 996 10 131
1965026S12133 1965 14 SP EA JUDY 1965-01-28 03:00:00 TS -14.7860 139.793 main 186 156 P_____P__PP_P_ SH211965 -14.7500 139.758 -1 -14.8611 139.843 996 -14.8781 139.808 TC 35 996 -14.7119 139.742 1 -14.7649 139.850 TC 35 996 9 130
1965026S12133 1965 14 SP EA JUDY 1965-01-28 06:00:00 TS -15.0752 140.151 main 146 109 O_____P__PP_O_ jtwc_sh SH211965 -15.1000 140.100 -1 -15.0955 140.234 996 -15.1188 140.207 TC 35 996 -15.0369 140.065 1 -15.0000 140.200 TC 35 996 9 130
1965026S12133 1965 14 SP EA JUDY 1965-01-28 09:00:00 TS -15.3491 140.495 main 109 85 P_____P__PP_P_ SH211965 -15.3999 140.400 -1 -15.3299 140.591 996 -15.3500 140.577 TC 35 996 -15.3723 140.386 1 -15.2426 140.615 TC 35 996 9 130
1965026S12133 1965 14 SP EA JUDY 1965-01-28 11:00:00 TS -15.5363 140.712 996 bom main 85 72 P_____O__PO_P_ SH211965 -15.5969 140.597 -1 -15.5000 140.800 996 -15.5129 140.799 TC 35 996 -15.6000 140.600 1 -15.4110 140.881 TC 35 996 8 133
1965026S12133 1965 14 SP EA JUDY 1965-01-28 12:00:00 TS -15.6357 140.815 main 72 32 O_____P__OP_O_ jtwc_sh SH211965 -15.7000 140.700 -1 -15.5962 140.887 996 -15.6000 140.900 TC 35 996 -15.7181 140.705 1 -15.5000 141.000 TC 35 996 9 138
1965026S12133 1965 14 SP EA JUDY 1965-01-28 15:00:00 TS -15.9581 141.109 main 32 10 P_____P__PP_P_ SH211965 -16.0425 141.050 -1 -15.8963 141.126 996 -15.8950 141.154 TC 35 996 -16.0801 141.017 1 -15.7923 141.258 TC 37 996 9 139
1965026S12133 1965 14 SP EA JUDY 1965-01-28 17:00:00 TS -16.1798 141.305 996 bom main 10 0 P_____O__PP_P_ SH211965 -16.2807 141.286 -1 -16.1000 141.300 996 -16.0982 141.315 TC 35 996 -16.3221 141.228 1 -15.9973 141.413 TC 39 996 9 139
1965026S12133 1965 14 SP EA JUDY 1965-01-28 18:00:00 TS -16.2891 141.410 main 0 0 O_____P__OP_O_ jtwc_sh SH211965 -16.4000 141.400 -1 -16.1929 141.424 996 -16.2000 141.400 TC 35 996 -16.4415 141.335 1 -16.1000 141.500 TC 40 996 9 136
1965026S12133 1965 14 SP EA JUDY 1965-01-28 21:00:00 TS -16.6121 141.733 main 0 0 P_____P__PP_P_ SH211965 -16.7573 141.693 -1 -16.4786 141.811 996 -16.4999 141.685 TC 35 996 -16.7866 141.666 1 -16.3926 141.850 TC 40 996 9 137
1965026S12133 1965 14 SP EA JUDY 1965-01-28 23:00:00 TS -16.8287 141.944 996 bom main 0 0 P_____O__PO_P_ SH211965 -16.9890 141.891 -1 -16.7000 142.000 996 -16.6999 141.891 TC 35 996 -17.0000 141.900 2 -16.5943 142.090 TC 40 996 9 138
1965026S12133 1965 14 SP EA JUDY 1965-01-29 00:00:00 TS -16.9405 142.043 main 0 0 O_____P__OP_O_ jtwc_sh SH211965 -17.1000 142.000 -1 -16.8306 142.039 996 -16.8000 142.000 TC 35 996 -17.1127 142.021 2 -16.7000 142.200 TC 40 996 9 140
1965026S12133 1965 14 SP EA JUDY 1965-01-29 02:00:00 TS -17.1721 142.242 998 bom main 0 0 P_____O__PP_P_ SH211965 -17.3242 142.251 -1 -17.1000 142.100 998 -17.0221 142.212 TC 34 996 -17.3314 142.270 2 -16.9307 142.366 TC 38 996 9 140
1965026S12133 1965 14 SP EA JUDY 1965-01-29 03:00:00 TS -17.2852 142.351 main 0 0 P_____P__PP_P_ SH211965 -17.4300 142.385 -1 -17.2304 142.172 998 -17.1358 142.322 TC 33 997 -17.4353 142.398 2 -17.0498 142.443 TC 37 997 9 133
1965026S12133 1965 14 SP EA JUDY 1965-01-29 06:00:00 TS -17.5964 142.713 main 0 0 O_____P__PP_O_ jtwc_sh SH211965 -17.7000 142.800 -1 -17.5936 142.512 998 -17.4717 142.672 TC 32 998 -17.7131 142.797 2 -17.4000 142.700 TC 35 998 9 128
1965026S12133 1965 14 SP EA JUDY 1965-01-29 09:00:00 TS -17.8566 143.117 main 0 0 P_____P__PP_P_ SH211965 -17.9024 143.193 -1 -17.8777 142.971 999 -17.7717 143.061 TC 31 999 -17.9179 143.214 2 -17.7675 143.070 TC 32 999 9 120
1965026S12133 1965 14 SP EA JUDY 1965-01-29 11:00:00 TS -17.9739 143.404 1000 bom main 0 0 P_____O__PO_P_ SH211965 -17.9806 143.461 -1 -18.0000 143.300 1000 -17.9341 143.347 TC 30 999 -18.0000 143.500 1 -17.9483 143.353 TC 30 999 9 111
1965026S12133 1965 14 SP EA JUDY 1965-01-29 12:00:00 TS -18.0109 143.545 main 0 0 O_____P__OP_O_ jtwc_sh SH211965 -18.0000 143.600 -1 -18.0431 143.428 999 -18.0000 143.500 TC 30 1000 -18.0221 143.640 1 -18.0000 143.500 TC 30 1000 8 94
1965026S12133 1965 14 SP EA JUDY 1965-01-29 15:00:00 TS -18.0155 143.978 main 0 0 P_____P__PP_P_ SH211965 -17.9874 144.035 -1 -18.0840 143.817 999 -18.0632 143.969 TC -18.0185 144.069 1 -17.9524 143.943 TC 32 999 9 84
1965026S12133 1965 14 SP EA JUDY 1965-01-29 18:00:00 TS -17.9279 144.439 main 0 0 O_____P__PP_O_ jtwc_sh SH211965 -17.9000 144.500 -1 -18.0109 144.236 998 -18.0220 144.485 TC -17.9343 144.514 1 -17.8000 144.400 TC 35 999 9 78
1965026S12133 1965 14 SP EA JUDY 1965-01-29 21:00:00 TS -17.8269 144.924 main 0 0 P_____P__PP_P_ SH211965 -17.8224 144.992 -1 -17.8475 144.722 998 -17.9035 145.048 TC -17.8009 144.978 1 -17.7646 144.812 TC 35 998 10 76
1965026S12133 1965 14 SP EA JUDY 1965-01-29 23:00:00 TS -17.7368 145.272 998 bom main 0 0 P_____O__PO_P_ SH211965 -17.7473 145.331 -1 -17.7000 145.100 998 -17.7949 145.448 TC -17.7000 145.300 1 -17.7309 145.121 TC 35 998 10 74
1965026S12133 1965 14 SP EA JUDY 1965-01-30 00:00:00 TS -17.6832 145.449 main 0 0 O_____P__PP_O_ jtwc_sh SH211965 -17.7000 145.500 -1 -17.6127 145.302 997 -17.7348 145.655 TC -17.6519 145.437 1 -17.7000 145.300 TC 35 998 11 70
1965026S12133 1965 14 SP EA JUDY 1965-01-30 03:00:00 TS -17.4794 146.010 main 0 0 P_____P__PP_P_ SH211965 -17.4998 145.993 -1 -17.3381 145.977 997 -17.5431 146.304 TC -17.4880 145.852 1 -17.5073 145.940 TC 35 997 12 69
1965026S12133 1965 14 SP EA JUDY 1965-01-30 03:30:00 TS -17.4447 146.109 997 bom main 0 0 P_____O__PP_P_ SH211965 -17.4638 146.075 -1 -17.3000 146.100 997 -17.5108 146.417 TC -17.4593 145.925 1 -17.4704 146.060 TC 35 996 12 72
1965026S12133 1965 14 SP EA JUDY 1965-01-30 06:00:00 TS -17.2914 146.629 main 54 54 O_____P__PP_O_ jtwc_sh SH211965 -17.3000 146.500 -1 -17.1750 146.754 995 -17.3553 146.995 TC -17.3180 146.323 1 -17.3000 146.700 TC 35 996 13 76
1965026S12133 1965 14 SP EA JUDY 1965-01-30 09:00:00 TS -17.1697 147.281 main 129 129 P_____P__PP_P_ SH211965 -17.1839 146.952 -1 -17.1108 147.612 994 -17.1986 147.727 TC -17.1711 146.912 1 -17.1699 147.527 TC 37 994 13 81
1965026S12133 1965 14 SP EA JUDY 1965-01-30 11:00:00 TS -17.1160 147.773 993 bom main 183 183 P_____O__PO_P_ SH211965 -17.1274 147.345 -1 -17.1000 148.200 993 -17.1247 148.238 TC -17.1000 147.400 1 -17.1166 148.109 TC 39 993 15 84
1965026S12133 1965 14 SP EA JUDY 1965-01-30 12:00:00 TS -17.0893 148.049 main 204 204 O_____P__OP_O_ jtwc_sh SH211965 -17.1000 147.600 -1 -17.0741 148.483 992 -17.1000 148.500 TC 40 993 -17.0617 147.713 1 -17.1000 148.400 TC 40 993 18 85
1965026S12133 1965 14 SP EA JUDY 1965-01-30 15:00:00 TS -17.0053 149.007 main 311 311 P_____P__PP_P_ SH211965 -16.9633 148.676 -1 -17.0120 149.336 992 -17.0448 149.314 TC 41 992 -16.9710 148.790 1 -17.0771 149.250 TC 42 992 19 87
1965026S12133 1965 14 SP EA JUDY 1965-01-30 18:00:00 TS -16.9798 150.038 main 380 380 O_____P__PP_O_ jtwc_sh SH211965 -16.9000 149.900 -1 -17.0019 150.190 991 -17.0380 150.167 TC 42 991 -16.9388 149.968 1 -17.1000 150.100 TC 45 991 19 91
1965026S12133 1965 14 SP EA JUDY 1965-01-30 21:00:00 TS -17.0380 151.036 main 435 432 P_____P__PP_P_ SH211965 -16.9751 151.032 -1 -17.0803 151.039 990 -17.1121 151.036 TC 43 990 -16.9959 151.116 1 -17.0897 150.958 TC 45 990 19 96
1965026S12133 1965 14 SP EA JUDY 1965-01-30 23:00:00 TS -17.1467 151.658 990 bom main 470 462 P_____O__PO_P_ SH211965 -17.1084 151.707 -1 -17.2000 151.600 990 -17.2227 151.614 TC 44 990 -17.1000 151.800 1 -17.1406 151.523 TC 45 990 18 102
1965026S12133 1965 14 SP EA JUDY 1965-01-31 00:00:00 TS -17.2270 151.939 main 476 475 O_____P__OP_O_ jtwc_sh SH211965 -17.2000 152.000 -1 -17.2863 151.878 989 -17.3000 151.900 TC 45 990 -17.1755 152.058 1 -17.2000 151.800 TC 45 990 16 113
1965026S12133 1965 14 SP EA JUDY 1965-01-31 03:00:00 TS -17.5694 152.680 main 509 509 P_____P__PP_P_ SH211965 -17.5614 152.653 -1 -17.6335 152.707 989 -17.6300 152.743 TC 46 989 -17.4908 152.724 1 -17.5395 152.600 TC 47 989 16 120
1965026S12133 1965 14 SP EA JUDY 1965-01-31 06:00:00 TS -18.0089 153.368 main 547 542 O_____P__PP_O_ jtwc_sh SH211965 -18.0000 153.200 -1 -18.0764 153.531 988 -18.0712 153.578 TC 47 989 -17.9059 153.297 1 -18.0000 153.400 TC 50 989 16 123
1965026S12133 1965 14 SP EA JUDY 1965-01-31 09:00:00 TS -18.4556 154.098 main 561 561 P_____P__PP_P_ SH211965 -18.3845 153.856 -1 -18.5682 154.352 988 -18.5768 154.400 TC 48 988 -18.3770 153.871 1 -18.4423 154.250 TC 50 988 17 123
1965026S12133 1965 14 SP EA JUDY 1965-01-31 11:00:00 TS -18.7639 154.606 988 bom main 571 571 P_____O__PO_P_ SH211965 -18.6550 154.339 -1 -18.9000 154.900 988 -18.9265 154.936 TC 49 988 -18.7000 154.300 1 -18.7473 154.820 TC 50 988 17 122
1965026S12133 1965 14 SP EA JUDY 1965-01-31 12:00:00 TS -18.9165 154.877 main 586 586 O_____P__OP_O_ jtwc_sh SH211965 -18.8000 154.600 -1 -19.0464 155.183 987 -19.1000 155.200 TC 50 988 -18.8526 154.580 1 -18.9000 155.100 TC 50 988 19 120
1965026S12133 1965 14 SP EA JUDY 1965-01-31 15:00:00 TS -19.3924 155.743 main 615 615 P_____P__PP_P_ SH211965 -19.3001 155.477 -1 -19.4917 156.033 987 -19.5881 156.081 TC -19.3248 155.487 1 -19.3494 155.901 TC 50 987 19 120
1965026S12133 1965 14 SP EA JUDY 1965-01-31 18:00:00 TS -19.8708 156.630 main 644 644 O_____P__PP_O_ jtwc_sh SH211965 -19.8000 156.400 -1 -19.9431 156.873 986 -20.0862 156.968 TC -19.7956 156.436 1 -19.8000 156.700 TC 50 987 19 119
1965026S12133 1965 14 SP EA JUDY 1965-01-31 21:00:00 TS -20.3233 157.503 main 662 625 P_____P__PP_P_ SH211965 -20.2374 157.288 -1 -20.3972 157.685 986 -20.5817 157.836 TC -20.2363 157.350 1 -20.2501 157.573 TC 52 986 18 119
1965026S12133 1965 14 SP EA JUDY 1965-01-31 23:00:00 TS -20.6054 158.052 986 bom main 615 595 P_____O__PO_P_ SH211965 -20.4890 157.842 -1 -20.7000 158.200 986 4 -20.9044 158.390 TC -20.5000 157.900 2 -20.5500 158.137 TC 54 986 17 119
1965026S12133 1965 14 SP EA JUDY 1965-02-01 00:00:00 TS -20.7388 158.314 main 595 527 O_____P__PP_O_ jtwc_sh SH211965 -20.6000 158.100 -1 -20.8635 158.477 986 -21.0621 158.656 TC -20.6070 158.150 2 -20.7000 158.400 TC 55 986 16 119
1965026S12133 1965 14 SP EA JUDY 1965-02-01 03:00:00 TS -21.1070 159.038 main 527 473 P_____P__PP_P_ SH211965 -20.8647 158.818 -1 -21.3601 159.287 986 -21.5154 159.402 TC -20.8876 158.828 2 -21.1493 159.073 TC 55 986 14 120
1965026S12133 1965 14 SP EA JUDY 1965-02-01 06:00:00 TS -21.4512 159.660 main 466 428 O_____P__PP_O_ jtwc_sh SH211965 -21.1000 159.400 -1 -21.8383 160.019 986 -21.9303 160.044 TC -21.1387 159.398 2 -21.6000 159.700 TC 55 986 13 123
1965026S12133 1965 14 SP MM JUDY 1965-02-01 09:00:00 TS -21.7990 160.204 main 428 409 P_____P__PP_P_ SH211965 -21.3697 159.853 -1 -22.2632 160.613 986 -22.2956 160.553 TC -21.4002 159.857 2 -22.0956 160.497 TC 55 986 12 127
1965026S12133 1965 14 SP MM JUDY 1965-02-01 11:00:00 TS -22.0251 160.488 986 bom main 409 405 P_____O__PO_P_ SH211965 -21.5801 160.091 -1 -22.5000 160.900 986 -22.5060 160.804 TC -21.6000 160.100 2 -22.3846 160.944 TC 55 986 10 132
1965026S12133 1965 14 SP MM JUDY 1965-02-01 12:00:00 TS -22.1343 160.606 main 405 399 O_____P__OP_O_ jtwc_sh SH211965 -21.7000 160.200 -1 -22.5821 161.011 986 -22.6000 160.900 TC 50 986 -21.7236 160.227 2 -22.5000 161.100 TC 55 986 8 140
1965026S12133 1965 14 SP MM JUDY 1965-02-01 15:00:00 TS -22.4374 160.857 main 397 397 P_____P__PP_P_ SH211965 -22.1350 160.560 -1 -22.7636 161.206 986 -22.7746 161.087 TC 50 986 -22.1289 160.533 2 -22.6870 161.198 TC 55 986 7 151
1965026S12133 1965 14 SP MM JUDY 1965-02-01 18:00:00 TS -22.7305 160.964 main 410 410 O_____P__PP_O_ jtwc_sh SH211965 -22.6000 160.800 -1 -22.8993 161.227 986 -22.9168 161.131 TC 50 986 -22.5667 160.726 2 -22.8000 161.100 TC 55 986 6 168
1965026S12133 1965 14 SP MM JUDY 1965-02-01 21:00:00 TS -23.0198 160.989 main 428 428 P_____P__PP_P_ SH211965 -23.0074 160.875 -1 -23.0542 161.120 986 -23.0756 161.059 TC 50 986 -23.0118 160.808 2 -22.9624 161.195 TC 55 986 6 0
1965026S12133 1965 14 SP MM JUDY 1965-02-01 23:00:00 TS -23.2269 160.943 986 bom main 449 449 P_____O__PO_P_ SH211965 -23.2692 160.839 -1 -23.2000 161.000 986 -23.2149 160.961 TC 50 986 -23.3000 160.800 2 -23.1078 161.220 TC 55 986 7 194
1965026S12133 1965 14 SP MM JUDY 1965-02-02 00:00:00 TS -23.3408 160.906 main 456 456 O_____P__OP_O_ jtwc_sh SH211965 -23.4000 160.800 -1 -23.3119 160.950 986 -23.3000 160.900 TC 50 986 -23.4329 160.788 2 -23.2000 161.200 TC 55 986 8 202
1965026S12133 1965 14 SP MM JUDY 1965-02-02 03:00:00 TS -23.7281 160.722 main 499 499 P_____P__PP_P_ SH211965 -23.8075 160.638 -1 -23.7042 160.735 987 -23.6655 160.709 TC 48 987 -23.8212 160.669 2 -23.5627 160.945 TC 52 987 9 207
1965026S12133 1965 14 SP MM JUDY 1965-02-02 06:00:00 TS -24.1406 160.458 main 542 542 O_____P__PP_O_ jtwc_sh SH211965 -24.2000 160.400 -1 -24.1497 160.447 988 -24.0978 160.441 TC 47 988 -24.1962 160.457 2 -24.0000 160.600 TC 50 988 10 211
1965026S12133 1965 14 SP MM JUDY 1965-02-02 09:00:00 TS -24.5495 160.184 main 592 592 P_____P__PP_P_ SH211965 -24.5575 160.157 -1 -24.6077 160.121 989 -24.5562 160.128 TC 46 989 -24.5609 160.190 2 -24.4574 160.350 TC 47 989 10 212
1965026S12133 1965 14 SP EA JUDY 1965-02-02 11:00:00 TS -24.8145 159.994 990 bom main 628 628 P_____O__PO_P_ SH211965 -24.7859 159.986 -1 -24.9000 159.900 990 -24.8562 159.909 TC 45 989 -24.8000 160.000 2 -24.7587 160.186 TC 45 989 9 213
1965026S12133 1965 14 SP EA JUDY 1965-02-02 12:00:00 TS -24.9413 159.904 main 643 624 O_____P__OP_O_ jtwc_sh SH211965 -24.9000 159.900 -1 -25.0254 159.803 990 -25.0000 159.800 TC 45 990 -24.9225 159.920 2 -24.9000 160.100 TC 45 990 9 214
1965026S12133 1965 14 SP EA JUDY 1965-02-02 15:00:00 TS -25.3004 159.632 main 624 605 P_____P__PP_P_ SH211965 -25.2499 159.657 -1 -25.3848 159.507 990 -25.3674 159.503 TC 45 990 -25.2854 159.662 2 -25.2650 159.807 TC 45 990 9 215
1965026S12133 1965 14 SP EA JUDY 1965-02-02 18:00:00 TS -25.6471 159.348 main 596 580 O_____P__PP_O_ jtwc_sh SH211965 -25.6000 159.400 -1 -25.7284 159.206 990 -25.7149 159.199 TC 45 990 -25.6391 159.386 2 -25.6000 159.500 TC 45 990 9 217
1965026S12133 1965 14 SP EA JUDY 1965-02-02 21:00:00 TS -25.9949 159.052 main 582 564 P_____P__PP_P_ SH211965 -25.9575 159.107 -1 -26.0687 158.902 990 -26.0549 158.896 TC 45 990 -25.9806 159.097 2 -25.9499 159.200 TC 45 990 9 218
1965026S12133 1965 14 SP EA JUDY 1965-02-02 23:00:00 TS -26.2242 158.850 990 bom main 567 555 P_____O__PO_P_ SH211965 -26.1890 158.903 -1 -26.3000 158.700 990 -26.2836 158.698 TC 45 990 -26.2000 158.900 2 -26.1833 159.000 TC 45 990 9 219
1965026S12133 1965 14 SP EA JUDY 1965-02-03 00:00:00 TS -26.3377 158.748 main 546 511 O_____P__OP_O_ jtwc_sh SH211965 -26.3000 158.800 -1 -26.4254 158.591 990 -26.4000 158.600 TC 45 990 -26.3006 158.795 2 -26.3000 158.900 TC 45 990 9 220
1965026S12133 1965 14 SP EA JUDY 1965-02-03 03:00:00 TS -26.6725 158.437 main 501 462 P_____P__PP_P_ SH211965 -26.6074 158.500 -1 -26.8086 158.262 990 -26.7801 158.290 TC 45 990 -26.5889 158.470 2 -26.6424 158.600 TC 45 990 9 220
1965026S12133 1965 14 SP EA JUDY 1965-02-03 06:00:00 TS -27.0052 158.131 main 462 424 O_____P__PP_O_ jtwc_sh SH211965 -26.9000 158.200 -1 -27.1925 157.945 990 -27.1651 157.991 TC 45 990 -26.8738 158.151 2 -27.0000 158.300 TC 45 990 9 219
1965026S12133 1965 14 SP EA JUDY 1965-02-03 09:00:00 TS -27.3411 157.833 main 424 407 P_____P__PP_P_ SH211965 -27.1775 157.892 -1 -27.5647 157.660 990 -27.5426 157.721 TC 45 990 -27.1769 157.863 2 -27.4076 157.970 TC 45 990 8 217
1965026S12133 1965 14 SP EA JUDY 1965-02-03 11:00:00 TS -27.5709 157.655 990 bom main 407 396 P_____O__PO_P_ SH211965 -27.3829 157.694 -1 -27.8000 157.500 990 -27.7839 157.567 TC 45 990 -27.4000 157.700 2 -27.6755 157.777 TC 45 990 8 214
1965026S12133 1965 14 SP EA JUDY 1965-02-03 12:00:00 TS -27.6894 157.571 main 396 363 O_____P__OP_O_ jtwc_sh SH211965 -27.5000 157.600 -1 -27.9029 157.414 990 -27.9000 157.500 TC 45 990 -27.5333 157.611 2 -27.8000 157.700 TC 45 990 9 211
1965026S12133 1965 14 SP EA JUDY 1965-02-03 15:00:00 TS -28.0585 157.332 main 362 352 P_____P__PP_P_ SH211965 -27.9351 157.291 -1 -28.1923 157.185 990 -28.2091 157.275 TC 43 990 -27.9645 157.371 2 -28.1149 157.577 TC 45 990 8 205
1965026S12133 1965 14 SP EA JUDY 1965-02-03 18:00:00 TS -28.4311 157.173 main 352 340 O_____P__PP_O_ jtwc_sh SH211965 -28.4000 157.100 -1 -28.4738 157.026 991 -28.4995 157.110 TC 42 991 -28.4134 157.205 2 -28.4000 157.500 TC 45 991 8 195
1965026S12133 1965 14 SP EA JUDY 1965-02-03 21:00:00 TS -28.7896 157.114 main 340 340 P_____P__PP_P_ SH211965 -28.8223 157.110 -1 -28.7750 156.968 992 -28.7903 157.040 TC 41 992 -28.8429 157.152 2 -28.6850 157.305 TC 42 992 7 0
1965026S12133 1965 14 SP EA JUDY 1965-02-03 23:00:00 TS -29.0239 157.153 993 bom main 350 350 P_____O__PO_P_ SH211965 -29.0806 157.220 -1 -29.0000 157.000 993 -28.9935 157.063 TC 40 992 -29.1000 157.200 2 -28.8886 157.213 TC 40 992 7 169
1965026S12133 1965 14 SP EA JUDY 1965-02-04 00:00:00 TS -29.1433 157.197 main 350 350 O_____P__OP_O_ jtwc_sh SH211965 -29.2000 157.300 -1 -29.1445 157.027 993 -29.1000 157.100 TC 40 993 -29.2155 157.256 2 -29.0000 157.200 TC 40 993 8 154
1965026S12133 1965 14 SP EA JUDY 1965-02-04 03:00:00 TS -29.5118 157.422 main 374 374 P_____P__PP_P_ SH211965 -29.5301 157.605 -1 -29.5763 157.201 993 -29.4775 157.275 TC 40 993 -29.5272 157.534 2 -29.4298 157.309 TC 40 993 8 146
1965026S12133 1965 14 SP EA JUDY 1965-02-04 05:00:00 TS -29.7233 157.647 994 bom main 397 397 P_____O__PP_P_ SH211965 -29.7167 157.864 -1 -29.8000 157.400 994 -29.7052 157.475 TC 40 993 -29.7057 157.790 2 -29.6956 157.486 TC 40 993 9 134
1965026S12133 1965 14 SP EA JUDY 1965-02-04 06:00:00 TS -29.8086 157.774 main 418 418 O_____P__OP_O_ jtwc_sh SH211965 -29.8000 158.000 -1 -29.8654 157.510 994 -29.8000 157.600 TC 40 994 -29.7861 157.932 2 -29.8000 157.600 TC 40 994 8 119
1965026S12133 1965 14 SP EA JUDY 1965-02-04 09:00:00 TS -29.9867 158.187 main 461 461 P_____P__PP_P_ SH211965 -30.0299 158.393 -1 -29.9592 157.939 996 -29.9798 158.038 TC 37 996 -29.9920 158.391 2 -29.9296 157.968 TC 37 996 8 113
1965026S12133 1965 14 SP EA JUDY 1965-02-04 11:00:00 TS -30.0718 158.505 998 bom main 492 492 P_____O__PO_P_ SH211965 -30.1500 158.664 -1 -30.0000 158.300 998 -30.0603 158.401 TC 35 997 -30.1000 158.700 2 -29.9707 158.303 TC 35 997 9 106
1965026S12133 1965 14 SP EA JUDY 1965-02-04 12:00:00 TS -30.1087 158.664 main 510 510 O_____P__OP_O_ jtwc_sh SH211965 -30.2000 158.800 -1 -30.0527 158.505 998 -30.1000 158.600 TC 35 998 -30.1454 158.849 2 -30.0000 158.500 TC 35 998 10 106
1965026S12133 1965 14 SP EA JUDY 1965-02-04 15:00:00 TS -30.2542 159.234 main 562 562 P_____P__PP_P_ SH211965 -30.3152 159.202 -1 -30.2452 159.220 999 -30.2736 159.270 TC 32 999 -30.2517 159.274 2 -30.1852 159.205 TC 32 999 11 106
1965026S12133 1965 14 SP EA JUDY 1965-02-04 18:00:00 TS -30.4146 159.905 main 630 630 O_____P__PP_O_ jtwc_sh SH211965 -30.4000 159.600 -1 -30.4634 160.020 1000 -30.4560 160.025 TC 30 1000 -30.3233 159.671 2 -30.4000 160.000 TC 30 1000 13 106
1965026S12133 1965 14 SP MM JUDY 1965-02-04 21:00:00 TS -30.6036 160.694 main 710 710 ______P__PP_P_ SH211965 -1 -30.6760 160.816 1001 -30.6350 160.792 TC 27 1001 -30.3729 160.051 2 -30.6152 160.795 TC 27 1001 14 106
1965026S12133 1965 14 SP MM JUDY 1965-02-04 23:00:00 TS -30.7360 161.211 1002 bom main 759 759 ______O__PO_P_ SH211965 -1 -30.8000 161.300 1002 -30.7471 161.275 TC 25 1001 -30.4000 160.300 2 -30.7449 161.284 TC 25 1001 14 107
1965026S12133 1965 14 SP MM JUDY 1965-02-05 00:00:00 TS -30.8139 161.494 main 789 789 ______P__O__O_ -1 -30.8418 161.483 1002 -30.8000 161.500 TC 25 1002 2 -30.8000 161.500 TC 25 1002 11 106
1965026S12133 1965 14 SP MM JUDY 1965-02-05 03:00:00 TS -30.9344 162.015 main 838 838 ______P__P__P_ -1 -30.9447 161.965 1003 -30.9444 162.092 TC 22 1003 2 -30.9142 161.988 TC 22 1003 9 105
1965026S12133 1965 14 SP MM JUDY 1965-02-05 06:00:00 TS -31.0346 162.461 main 887 887 ______P__P__O_ -1 -31.0317 162.399 1004 -31.0722 162.583 TC 20 1004 2 -31.0000 162.400 TC 20 1004 8 104
1965026S12133 1965 14 SP MM JUDY 1965-02-05 09:00:00 TS -31.1303 162.902 main 927 927 ______P__P__P_ -1 -31.1246 162.853 1005 -31.1890 163.008 TC 17 1005 2 -31.0921 162.870 TC 17 1005 8 104
1965026S12133 1965 14 SP MM JUDY 1965-02-05 11:00:00 TS -31.1970 163.220 1006 bom main 950 932 ______O__P__P_ -1 -31.2000 163.200 1006 -31.2634 163.271 TC 15 1005 -31.1607 163.214 TC 15 1005 9 103
1965026S12133 1965 14 SP MM JUDY 1965-02-05 12:00:00 TS -31.2289 163.398 main 932 871 ______P__O__O_ -1 -31.2438 163.394 1006 -31.3000 163.400 TC 15 1006 -31.2000 163.400 TC 15 1006 11 103
1965026S12133 1965 14 SP MM JUDY 1965-02-05 15:00:00 TS -31.3618 164.029 main 871 832 ______P_____P_ -1 -31.3933 164.040 1007 TC -31.3409 164.022 TC 12 1007 11 104
1965026S12133 1965 14 SP MM JUDY 1965-02-05 17:00:00 TS -31.4642 164.481 1008 bom main 824 807 ______O_____P_ -1 -31.5000 164.500 1008 TC -31.4463 164.471 TC 10 1007 12 104
1965026S12133 1965 14 SP MM JUDY 1965-02-05 18:00:00 TS -31.5000 164.700 main 807 ____________O_ -1 TC -31.5000 164.700 TC 10 1008 11 101

About IBTrACS Database

This database is a web-friendly format of International Best Track Archive for Climate Stewardship (IBTrACS), a global best track data archive curated by NOAA dating back to 1842.

Updated: 2021-12-03